Weather observations for the past three days for
Minocqua/Woodruff, Lakeland Airport/Noble F. Lee Memorial Field
Imperial (Metric)
Date Time (cdt) Wind (mph) Vis. (mi.) Weather Sky Cond. Temperature (ºF) Relative Humidity Wind Chill (°F) Heat Index (°F) Pressure Precipitation (in)
Air Dwpt 6 hour altimeter (in) sea level (mb) 1 hr 3 hr 6 hr
Max. Min.
02 23:35 Calm 10.00 Partly Cloudy SCT090 62.6 55.4 77% 29.98 0.0
02 23:15 Calm 10.00 Partly Cloudy SCT100 64.4 55.4 73% 29.97 0.0
02 22:55 Calm 10.00 Partly Cloudy SCT100 64.4 55.4 73% 29.96 0.0
02 22:35 Calm 10.00 Mostly Cloudy BKN100 66.2 55.4 68% 29.96 0.0
02 22:15 Calm 10.00 Mostly Cloudy BKN100 68 55.4 64% 29.96 0.0
02 21:55 Calm 10.00 Fair CLR 66.2 55.4 68% 29.96 0.0
02 21:35 Calm 10.00 Fair CLR 68 55.4 64% 29.96 0.0
02 21:15 Calm 10.00 Fair CLR 69.8 55.4 60% 29.96 0.0
02 20:55 Calm 10.00 Fair CLR 69.8 55.4 60% 29.96 0.0
02 20:35 NE 3 10.00 Fair CLR 71.6 55.4 57% 29.95 0.0
02 20:15 NE 5 10.00 Fair CLR 73.4 55.4 53% 29.93 0.0
02 19:55 NE 8 10.00 Fair CLR 73.4 55.4 53% 29.93 0.0
02 19:35 N 9 10.00 Fair CLR 71.6 55.4 57% 29.92 0.0
02 19:15 Calm 10.00 Fair CLR 73.4 57.2 57% 29.92 0.0
02 18:55 Calm 10.00 Fair CLR 78.8 55.4 45% 79 29.92 0.0
02 18:35 N 3 10.00 Fair CLR 80.6 53.6 39% 80 29.91 0.0
02 18:15 Calm 10.00 Fair CLR 80.6 53.6 39% 80 29.91 0.0
02 17:55 Calm 10.00 Fair CLR 80.6 53.6 39% 80 29.91 0.0
02 17:35 SW 5 10.00 Fair CLR 80.6 53.6 39% 80 29.91 0.0
02 17:15 Calm 10.00 Partly Cloudy SCT085 80.6 53.6 39% 80 29.92 0.0
02 16:55 SW 5 10.00 Overcast SCT001 OVC085 80.6 53.6 39% 80 29.92 0.0
02 16:35 W 5 10.00 Overcast SCT001 OVC085 80.6 53.6 39% 80 29.92 0.0
02 16:15 NW 5 10.00 Overcast OVC085 80.6 53.6 39% 80 29.92 0.0
02 15:55 W 6 10.00 Mostly Cloudy BKN085 BKN100 80.6 53.6 39% 80 29.93 0.0
02 15:35 Calm 10.00 Mostly Cloudy BKN100 80.6 53.6 39% 80 29.92 0.0
02 15:15 W 5 10.00 Partly Cloudy SCT110 78.8 53.6 42% 79 29.93 0.0
02 14:55 W 3 10.00 Partly Cloudy SCT100 78.8 53.6 42% 79 29.93 0.0
02 14:35 N 5 10.00 Fair CLR 80.6 55.4 42% 81 29.93 0.0
02 14:15 NW 3 10.00 Fair CLR 78.8 55.4 45% 79 29.94 0.0
02 13:55 SW 7 10.00 Fair CLR 78.8 55.4 45% 79 29.94 0.0
02 13:35 Calm 10.00 Fair CLR 78.8 55.4 45% 79 29.95 0.0
02 13:15 NW 6 10.00 Fair CLR 78.8 53.6 42% 79 29.96 0.0
02 12:55 W 7 10.00 Fair CLR 77 51.8 42% 78 29.95 0.0
02 12:35 Calm 10.00 Fair CLR 77 53.6 44% 78 29.95 0.0
02 12:15 Calm 10.00 Fair CLR 77 53.6 44% 78 29.95 0.0
02 11:55 Calm 10.00 Fair CLR 75.2 55.4 50% 78 29.95 0.0
02 11:35 W 5 10.00 Fair CLR 73.4 55.4 53% 29.95 0.0
02 11:15 N 3 10.00 Fair CLR 73.4 57.2 57% 29.95 0.0
02 10:55 N 6 10.00 Fair CLR 71.6 59 65% 29.96 0.0
02 10:35 N 5 10.00 Fair CLR 69.8 57.2 64% 29.95 0.0
02 10:15 N 5 10.00 Fair CLR 69.8 59 69% 29.96 0.0
02 09:55 W 3 0.00 Fair CLR 68 59 73% 29.96 0.0
02 09:35 W 5 10.00 Partly Cloudy SCT100 68 59 73% 29.96 0.0
02 09:15 SW 6 10.00 Mostly Cloudy BKN090 64.4 59 83% 29.98 0.0
02 08:55 SW 7 10.00 Partly Cloudy SCT100 64.4 60.8 88% 29.99 0.0
02 08:35 SW 9 10.00 Partly Cloudy SCT100 62.6 60.8 94% 29.99 0.0
02 08:15 SW 7 10.00 Partly Cloudy SCT100 62.6 60.8 94% 29.99 0.0
02 07:55 SW 3 10.00 Mostly Cloudy BKN110 60.8 59 94% 29.97 0.0
02 07:35 Calm 10.00 Partly Cloudy SCT110 60.8 59 94% 29.95 0.0
02 07:15 Calm 10.00 Partly Cloudy SCT110 59 59 100% 29.96 0.0
02 06:55 Calm 10.00 Mostly Cloudy BKN100 60.8 59 94% 29.95 0.0
02 06:35 Calm 10.00 Overcast OVC100 59 59 100% 29.95 0.0
02 06:15 N 3 10.00 Light Rain OVC110 59 59 100% 29.94 0.0
02 05:55 Calm 10.00 Light Rain BKN120 59 59 100% 29.94 0.0
02 05:35 Calm 10.00 Light Rain SCT120 60.8 59 94% 29.97 0.0
02 05:15 Calm 10.00 Light Rain SCT085 OVC120 60.8 57.2 88% 29.99 0.0
02 04:55 S 5 10.00 Light Rain OVC085 60.8 57.2 88% 29.99 0.0
02 04:35 SW 6 10.00 Light Rain BKN095 BKN120 60.8 59 94% 29.99 0.0
02 04:15 S 6 10.00 Light Rain BKN095 59 57.2 94% 29.98 0.0
02 03:55 Calm 10.00 Mostly Cloudy SCT095 BKN120 60.8 55.4 83% 29.96 0.0
02 03:35 Calm 10.00 Partly Cloudy SCT120 60.8 55.4 83% 29.95 0.0
02 03:15 Calm 10.00 Partly Cloudy SCT120 59 55.4 88% 29.96 0.0
02 02:55 Calm 10.00 Partly Cloudy SCT120 59 55.4 88% 29.96 0.0
02 02:35 Calm 10.00 Partly Cloudy SCT120 59 55.4 88% 29.95 0.0
02 02:15 Calm 10.00 Fair CLR 59 55.4 88% 29.95 0.0
02 01:55 Calm 10.00 Partly Cloudy SCT120 60.8 55.4 83% 29.94 0.0
02 01:35 Calm 10.00 Fair CLR 59 55.4 88% 29.96 0.0
02 01:15 Calm 10.00 Fair CLR 59 55.4 88% 29.96 0.0
02 00:55 Calm 10.00 Fair CLR 59 55.4 88% 29.96 0.0
02 00:35 Calm 10.00 Fair CLR 59 55.4 88% 29.96 0.0
02 00:15 Calm 10.00 Fair CLR 60.8 55.4 83% 29.96 0.0
01 23:55 Calm 10.00 Fair CLR 60.8 55.4 83% 29.96 0.0
01 23:35 Calm 10.00 Fair CLR 60.8 55.4 83% 29.96 0.0
01 23:15 Calm 10.00 Fair CLR 60.8 55.4 83% 29.96 0.0
01 22:55 Calm 10.00 Fair CLR 60.8 55.4 83% 29.96 0.0
01 22:35 Calm 10.00 Fair CLR 60.8 55.4 83% 29.95 0.0
01 21:55 Calm 10.00 Fair CLR 62.6 55.4 77% 29.96 0.0
01 21:35 Calm 10.00 Fair CLR 64.4 55.4 73% 29.95 0.0
01 21:15 Calm 10.00 Fair CLR 66.2 55.4 68% 29.94 0.0
01 20:55 Calm 10.00 Fair CLR 68 55.4 64% 29.94 0.0
01 20:35 Calm 10.00 Fair CLR 69.8 55.4 60% 29.94 0.0
01 20:15 Calm 10.00 Fair CLR 71.6 55.4 57% 29.93 0.0
01 19:55 Calm 10.00 Fair CLR 73.4 55.4 53% 29.93 0.0
01 19:35 Calm 10.00 Fair CLR 73.4 55.4 53% 29.93 0.0
01 19:15 W 3 10.00 Fair CLR 77 53.6 44% 78 29.93 0.0
01 18:55 Calm 10.00 Fair CLR 78.8 51.8 39% 79 29.91 0.0
01 18:35 W 5 10.00 Fair CLR 80.6 51.8 37% 80 29.91 0.0
01 18:15 W 6 10.00 Fair CLR 80.6 50 34% 80 29.91 0.0
01 17:55 NW 6 10.00 Fair CLR 82.4 51.8 35% 81 29.91 0.0
01 17:30 NW 6 10.00 Fair CLR 82.4 51.8 35% 81 29.91 0.0
01 17:15 W 9 10.00 Fair CLR 82.4 50 32% 81 29.91 0.0
01 16:55 W 8 10.00 Fair CLR 86 50 29% 84 29.91 0.0
01 16:35 W 7 G 17 10.00 Fair CLR 86 50 29% 84 29.91 0.0
01 16:15 NW 14 G 18 10.00 Fair CLR 86 50 29% 84 29.91 0.0
01 15:55 W 13 G 16 10.00 Fair CLR 86 51.8 31% 84 29.92 0.0
01 15:35 W 14 G 20 10.00 Fair CLR 86 51.8 31% 84 29.91 0.0
01 15:15 W 12 G 18 10.00 Fair CLR 86 51.8 31% 84 29.91 0.0
01 14:55 SW 12 G 21 10.00 Fair CLR 86 53.6 33% 84 29.92 0.0
01 14:35 W 15 10.00 Fair CLR 86 55.4 35% 85 29.92 0.0
01 14:15 W 12 G 17 10.00 Fair CLR 86 55.4 35% 85 29.93 0.0
01 13:55 W 15 G 18 10.00 Fair CLR 86 55.4 35% 85 29.93 0.0
01 13:35 W 8 G 23 10.00 Fair CLR 86 55.4 35% 85 29.94 0.0
01 13:15 SW 9 G 20 10.00 Fair CLR 86 55.4 35% 85 29.94 0.0
01 12:55 W 10 G 16 10.00 Fair CLR 84.2 53.6 35% 83 29.95 0.0
01 12:35 W 8 10.00 Fair CLR 82.4 53.6 37% 81 29.96 0.0
01 12:15 W 9 10.00 Fair CLR 82.4 55.4 40% 82 29.96 0.0
01 11:55 W 8 10.00 Fair CLR 80.6 53.6 39% 80 29.96 0.0
01 11:35 W 7 10.00 Fair CLR 78.8 55.4 45% 79 29.98 0.0
01 11:15 W 6 10.00 Fair CLR 78.8 57.2 48% 80 29.98 0.0
01 10:55 W 3 10.00 Fair CLR 77 57.2 51% 79 29.98 0.0
01 10:35 SW 6 10.00 Fair CLR 77 60.8 57% 79 29.99 0.0
01 10:15 W 5 10.00 Fair CLR 75.2 60.8 61% 77 29.99 0.0
01 09:55 W 3 10.00 Fair CLR 71.6 62.6 73% 29.99 0.0
01 09:35 Calm 10.00 Fair CLR 69.8 64.4 83% 29.98 0.0
01 09:15 Calm 10.00 Fair CLR 69.8 64.4 83% 29.98 0.0
01 08:55 Calm 10.00 Fair CLR 68 64.4 88% 29.99 0.0
01 08:35 Calm 10.00 Fair CLR 64.4 64.4 100% 29.98 0.0
01 08:15 Calm 7.00 Fair CLR 62.6 62.6 100% 29.98 0.0
01 07:55 Calm 0.75 Fog/Mist VV005 59 59 100% 29.98 0.0
01 07:35 Calm 0.15 Fog OVC001 57.2 57.2 100% 29.98 0.0
01 07:15 Calm 0.15 Fog OVC001 55.4 55.4 100% 29.98 0.0
01 06:55 Calm 0.15 Fog BKN001 55.4 55.4 100% 29.98 0.0
01 06:35 Calm 0.15 Fog OVC001 55.4 55.4 100% 29.96 0.0
01 06:15 Calm 0.50 Fog VV005 53.6 53.6 100% 29.96 0.0
01 05:55 Calm 0.50 Fog VV005 53.6 53.6 100% 29.95 0.0
01 05:35 Calm 1.00 Fog/Mist VV007 55.4 55.4 100% 29.95 0.0
01 05:15 Calm 0.25 Fog VV002 55.4 55.4 100% 29.95 0.0
01 04:55 Calm 0.25 Fog VV002 55.4 55.4 100% 29.95 0.0
01 04:35 Calm 0.50 Fog VV005 57.2 57.2 100% 29.95 0.0
01 04:15 Calm 0.25 Fog VV002 57.2 57.2 100% 29.95 0.0
01 03:55 Calm 0.75 Fog/Mist VV005 59 59 100% 29.95 0.0
01 03:35 Calm 0.75 Fog/Mist VV005 59 59 100% 29.95 0.0
01 03:15 Calm 10.00 Fair CLR 59 59 100% 29.95 0.0
01 02:55 Calm 1.75 Fog/Mist VV007 59 59 100% 29.95 0.0
01 02:35 Calm 1.50 Fog/Mist VV007 59 59 100% 29.95 0.0
01 02:15 Calm 5.00 Fog/Mist CLR 60.8 60.8 100% 29.95 0.0
01 01:55 Calm 10.00 Fair CLR 60.8 60.8 100% 29.95 0.0
01 01:35 Calm 5.00 Fog/Mist CLR 60.8 60.8 100% 29.95 0.0
01 01:15 Calm 10.00 Fair CLR 62.6 60.8 94% 29.95 0.0
01 00:55 Calm 5.00 Fog/Mist CLR 60.8 60.8 100% 29.95 0.0
01 00:35 Calm 2.50 Fog/Mist CLR 62.6 60.8 94% 29.95 0.0
01 00:15 Calm 0.25 Fog VV002 62.6 62.6 100% 29.95 0.0
31 23:55 Calm 7.00 Fair CLR 64.4 64.4 100% 29.95 0.0
31 23:35 Calm 3.00 Fog/Mist CLR 64.4 62.6 94% 29.95 0.0
31 23:15 Calm 1.50 Fog/Mist VV007 64.4 64.4 100% 29.94 0.0
31 22:55 Calm 5.00 Fog/Mist CLR 64.4 64.4 100% 29.94 0.0
31 22:35 Calm 1.00 Fog/Mist VV007 64.4 64.4 100% 29.94 0.0
31 22:15 Calm 10.00 Fair CLR 68 66.2 94% 29.94 0.0
31 21:55 Calm 3.00 Fog/Mist CLR 66.2 66.2 100% 29.93 0.0
31 21:35 Calm 10.00 Fair CLR 68 66.2 94% 29.93 0.0
31 21:15 Calm 10.00 Fair CLR 68 68 100% 29.94 0.0
31 20:55 Calm 10.00 Fair CLR 69.8 68 94% 29.93 0.0
31 20:35 Calm 10.00 Fair CLR 69.8 68 94% 29.93 0.0
31 20:15 Calm 10.00 Fair CLR 73.4 69.8 89% 29.92 0.0
31 19:55 Calm 10.00 Fair CLR 71.6 68 88% 29.91 0.0
31 19:35 Calm 10.00 Fair CLR 75.2 69.8 83% 75 29.91 0.0
31 19:15 N 6 10.00 Fair CLR 77 69.8 79% 79 29.91 0.0
31 18:35 NW 8 10.00 Fair CLR 80.6 69.8 70% 84 29.9 0.0
31 18:15 NW 5 10.00 Fair CLR 80.6 71.6 74% 85 29.9 0.0
31 17:55 Calm 10.00 Partly Cloudy SCT031 80.6 71.6 74% 85 29.89 0.0
31 17:30 S 5 10.00 Mostly Cloudy SCT028 BKN035 80.6 71.6 74% 85 29.89 0.0
31 17:15 S 5 10.00 Partly Cloudy SCT026 SCT033 80.6 71.6 74% 85 29.89 0.0
31 16:55 S 6 10.00 Mostly Cloudy SCT026 BKN033 80.6 71.6 74% 85 29.89 0.0
31 16:35 SW 5 10.00 Mostly Cloudy BKN024 80.6 71.6 74% 85 29.88 0.0
31 16:15 S 5 10.00 Overcast OVC022 78.8 71.6 79% 82 29.88 0.0
31 15:55 W 3 10.00 Mostly Cloudy BKN022 78.8 71.6 79% 82 29.88 0.0
31 15:35 SW 3 10.00 Partly Cloudy SCT019 80.6 69.8 70% 84 29.88 0.0
31 15:15 SW 5 10.00 Mostly Cloudy BKN019 77 69.8 79% 79 29.88 0.0
31 14:55 Calm 10.00 Mostly Cloudy BKN017 77 69.8 79% 79 29.89 0.0
31 14:35 W 6 10.00 Overcast OVC015 77 69.8 79% 79 29.89 0.0
31 14:15 S 6 10.00 Overcast OVC013 75.2 69.8 83% 75 29.88 0.0
31 13:55 W 8 10.00 Overcast OVC013 73.4 69.8 89% 29.89 0.0
31 13:35 SW 5 10.00 Overcast OVC011 73.4 69.8 89% 29.89 0.0
31 13:15 W 7 10.00 Overcast OVC011 73.4 69.8 89% 29.9 0.0
31 12:55 SW 6 10.00 Overcast OVC011 73.4 69.8 89% 29.89 0.0
31 12:35 SW 6 10.00 Overcast OVC009 73.4 68 83% 29.9 0.0
31 12:15 SW 7 10.00 Overcast OVC009 73.4 68 83% 29.9 0.0
31 11:55 S 6 10.00 Overcast OVC009 71.6 68 88% 29.89 0.0
31 11:35 S 6 10.00 Overcast OVC009 71.6 68 88% 29.89 0.0
31 11:15 S 8 10.00 Overcast OVC009 71.6 68 88% 29.9 0.0
31 10:55 S 7 10.00 Overcast OVC007 71.6 68 88% 29.89 0.0
31 10:35 S 8 10.00 Overcast OVC007 69.8 68 94% 29.9 0.0
31 10:15 S 8 10.00 Overcast OVC007 69.8 68 94% 29.88 0.0
31 09:55 S 7 10.00 Overcast OVC007 69.8 68 94% 29.87 0.0
31 09:35 S 7 7.00 Overcast OVC007 69.8 68 94% 29.88 0.0
31 09:15 SE 8 4.00 Fog/Mist OVC007 68 66.2 94% 29.87 0.0
31 08:55 S 6 10.00 Overcast OVC007 68 66.2 94% 29.88 0.0
31 08:35 SE 6 10.00 Overcast OVC007 68 66.2 94% 29.88 0.0
31 08:15 SE 5 10.00 Overcast BKN007 OVC011 68 66.2 94% 29.88 0.0
31 07:55 SE 7 10.00 Overcast OVC007 68 66.2 94% 29.88 0.0
31 07:35 S 5 10.00 Overcast OVC007 68 66.2 94% 29.88 0.0
31 07:15 SE 3 10.00 Overcast BKN007 OVC019 68 66.2 94% 29.87 0.0
31 06:55 SE 5 10.00 Overcast BKN007 BKN010 OVC021 68 66.2 94% 29.87 0.0
31 06:35 S 5 10.00 Overcast BKN007 BKN011 OVC021 68 64.4 88% 29.87 0.0
31 06:15 SE 7 10.00 Overcast BKN007 OVC023 68 64.4 88% 29.87 0.0
31 05:55 SE 7 10.00 Overcast BKN007 OVC023 68 64.4 88% 29.87 0.0
31 05:35 SE 6 10.00 Overcast OVC007 68 64.4 88% 29.88 0.0
31 05:15 SE 7 10.00 Overcast OVC007 68 64.4 88% 29.88 0.0
31 04:55 SE 5 10.00 Overcast OVC007 68 64.4 88% 29.89 0.0
31 04:35 SE 7 10.00 Overcast OVC005 68 64.4 88% 29.88 0.0
31 04:15 SE 7 7.00 Overcast OVC005 68 64.4 88% 29.89 0.0
31 03:55 SE 7 7.00 Overcast OVC005 68 64.4 88% 29.89 0.0
31 03:35 SE 9 7.00 Overcast OVC005 68 66.2 94% 29.88 0.0
31 03:15 SE 9 7.00 Overcast OVC005 68 66.2 94% 29.88 0.0
31 02:55 SE 8 7.00 Overcast OVC005 68 66.2 94% 29.89 0.0
31 02:35 SE 8 7.00 Overcast OVC005 68 66.2 94% 29.9 0.0
31 02:15 SE 8 7.00 Overcast OVC005 68 66.2 94% 29.91 0.0
31 01:55 SE 8 7.00 Overcast OVC007 68 66.2 94% 29.92 0.0
31 01:35 SE 8 7.00 Overcast OVC007 68 66.2 94% 29.92 0.0
31 01:15 SE 9 7.00 Thunderstorm in Vicinity OVC005 68 66.2 94% 29.93 0.0
31 00:55 SE 10 7.00 Overcast OVC005 68 66.2 94% 29.94 0.0
31 00:35 SE 7 5.00 Fog/Mist OVC005 68 66.2 94% 29.94 0.0
31 00:15 SE 9 7.00 Overcast OVC005 68 66.2 94% 29.94 0.0
30 23:55 SE 6 7.00 Overcast OVC005 68 66.2 94% 29.94 0.0
Date Time (cdt) Wind (mph) Vis. (mi.) Weather Sky Cond. Air Dwpt Max. Min. Relative Humidity Wind Chill (°F) Heat Index (°F) altimeter (in) sea level (mb) 1 hr 3 hr 6 hr
6 hour
Temperature (ºF) Pressure Precipitation (in)